TAF and METAR

Decoding for American and Canadian METARs and TAFs is not fully implemented.

Could not understand the following METAR

CYMT 270400Z AUTO 06011KT 9SM FEW130 SCT150 M09/M15 A2999 RMK SLP189
No TAF available for Chibougamau/Chapais Airport
Chibougamau/Chapais Airport in Canada at 387m

Latest 5 airports